amightygirl.com alexa rank chart, amightygirl.com alexa rank daily changes

amightygirl.com alexa rank chart, amightygirl.com alexa rank daily changes

amightygirl.com
Actual rank:
180 981

RANK HISTORY

Date Rank Diff
2017/05/26 180 981 -172
2017/05/25 181 153 +1 697
2017/05/24 179 456 +6 245
2017/05/23 173 211 -377
2017/05/22 173 588 +1 186
2017/05/21 172 402 +1 437
2017/05/20 170 965 +4 552
2017/05/19 166 413 -1 748
2017/05/18 168 161 +2 736
2017/05/17 165 425 -4 164
2017/05/16 169 589 -5 243
2017/05/15 174 832 -5 242
2017/05/14 180 074 +3 379
2017/05/13 176 695 +1 851
2017/05/12 174 844 +1 476
2017/05/11 173 368 -2 526
2017/05/10 175 894 -2 911
2017/05/09 178 805 -6 746
2017/05/08 185 551 -4 331
2017/05/07 189 882 -3 049
2017/05/06 192 931 -118
2017/05/05 193 049 +2 801
2017/05/04 190 248 +5 286
2017/05/03 184 962 +960
2017/05/02 184 002 +2 304
2017/05/01 181 698 +2 240
2017/04/30 179 458 -1 491
2017/04/29 180 949 +4 274
2017/04/28 176 675 +1 607
2017/04/27 175 068 -2 717
2017/04/26 177 785 +1 671
2017/04/25 176 114 +1 242
2017/04/24 174 872 -6 224
2017/04/23 181 096 -1 649
2017/04/22 182 745 +2 682
2017/04/21 180 063 -2 711
2017/04/20 182 774 -4 283
2017/04/19 187 057 +2 962
2017/04/18 184 095 -7 151
2017/04/17 191 246 +1 233
2017/04/16 190 013 +19 101
2017/04/15 170 912 -202
2017/04/14 171 114 -2 140
2017/04/13 173 254 +795
2017/04/12 172 459 +1 610
2017/04/11 170 849 +1 186
2017/04/10 169 663 +8 827
2017/04/09 160 836 +3 509
2017/04/08 157 327 +3 173
2017/04/07 154 154 +1 749
2017/04/06 152 405 -1 136
2017/04/05 153 541 +786
2017/04/04 152 755 -1 176
2017/04/03 153 931 -1 660
2017/04/02 155 591 +768
2017/04/01 154 823 +1 027
2017/03/31 153 796 +254
2017/03/30 153 542 +2 830
2017/03/29 150 712 -2 472
2017/03/28 153 184 +3 390
2017/03/27 149 794

WIDGET FOR YOUR SITE

DOMAINS WITH THE NEAREST RANK

Domain Rank
igrixl.ru 180 976
icoc.in 180 977
sketchupartists.org 180 978
literautas.com 180 979
kuyoo.cn 180 980
amightygirl.com 180 981
footballbettingtips.org 180 982
viraless.net 180 983
blackcurranthumidifiers.site 180 984
tempostats.com 180 985
namjacloset.com 180 986

DOMAINS WITH THE NEAREST RANK BY TLD .com

Domain Rank
africam.com 180 969
shaadisaga.com 180 971
wpcrafter.com 180 972
e-osusume.com 180 974
literautas.com 180 979
amightygirl.com 180 981
tempostats.com 180 985
namjacloset.com 180 986
offers-world.com 180 988
mahanbs.com 180 989
myeway.com 180 990